Time;durP1;ratioP1;P1;durP2;ratioP2;P2;SDS_P1;SDS_P2;PMS_P1;PMS_P2;Temp;Humidity;BMP_temperature;BMP_pressure;BME280_temperature;BME280_humidity;BME280_pressure;Samples;Min_cycle;Max_cycle;Signal;HPM_P1;HPM_P2
2022/01/10 00:00:37;;;;;;;12.80;6.87;;;;;;;1.97;100.00;98497.25;5034065;28;20327;-83
2022/01/10 00:03:08;;;;;;;13.50;7.13;;;;;;;1.97;100.00;98503.31;5031357;28;20285;-83
2022/01/10 00:05:38;;;;;;;12.83;6.87;;;;;;;1.92;100.00;98507.00;5034802;28;20236;-84
2022/01/10 00:08:07;;;;;;;13.40;7.93;;;;;;;1.92;100.00;98507.00;5032166;28;20224;-83
2022/01/10 00:10:36;;;;;;;13.40;6.60;;;;;;;1.85;100.00;98514.25;4998289;28;20205;-83
2022/01/10 00:13:05;;;;;;;10.63;6.83;;;;;;;1.82;100.00;98521.34;5029343;28;20194;-83
2022/01/10 00:15:33;;;;;;;11.20;6.73;;;;;;;1.78;100.00;98520.63;5040971;28;20650;-83
2022/01/10 00:18:02;;;;;;;13.27;6.77;;;;;;;1.76;100.00;98530.28;5105053;28;20219;-83
2022/01/10 00:20:30;;;;;;;10.63;6.83;;;;;;;1.71;100.00;98527.81;5116269;28;20210;-83
2022/01/10 00:23:03;;;;;;;10.37;7.03;;;;;;;1.74;100.00;98529.50;5114986;28;20187;-83
2022/01/10 00:25:32;;;;;;;39.07;18.53;;;;;;;1.82;100.00;98534.41;5114275;28;20187;-83
2022/01/10 00:28:01;;;;;;;16.70;9.60;;;;;;;1.86;100.00;98536.00;5107602;28;20194;-83
2022/01/10 00:30:30;;;;;;;18.90;10.03;;;;;;;1.86;100.00;98536.00;5108569;28;20219;-83
2022/01/10 00:32:58;;;;;;;20.83;10.47;;;;;;;1.88;100.00;98539.38;5113545;28;20198;-83
2022/01/10 00:35:27;;;;;;;13.43;7.80;;;;;;;1.93;100.00;98545.25;5106664;28;20206;-83
2022/01/10 00:37:56;;;;;;;19.10;8.97;;;;;;;1.93;100.00;98545.25;5114977;28;20203;-80
2022/01/10 00:40:26;;;;;;;13.90;8.70;;;;;;;1.89;100.00;98548.91;5123138;28;20233;-84
2022/01/10 00:42:56;;;;;;;13.40;7.53;;;;;;;1.82;100.00;98550.06;5109854;28;20194;-83
2022/01/10 00:45:27;;;;;;;12.77;7.17;;;;;;;1.81;100.00;98549.22;5112226;28;20193;-83
2022/01/10 00:47:57;;;;;;;11.83;7.30;;;;;;;1.68;100.00;98556.66;5107992;28;20249;-83
2022/01/10 00:50:29;;;;;;;9.93;6.97;;;;;;;1.69;100.00;98566.19;5111079;28;20260;-83
2022/01/10 00:52:58;;;;;;;13.03;6.70;;;;;;;1.64;100.00;98562.94;5107057;28;20203;-84
2022/01/10 00:55:29;;;;;;;11.40;6.70;;;;;;;1.61;100.00;98572.59;5110463;28;20202;-83
2022/01/10 00:57:57;;;;;;;12.23;6.83;;;;;;;1.52;100.00;98570.34;5112319;28;20650;-84
2022/01/10 01:00:26;;;;;;;14.23;7.67;;;;;;;1.48;100.00;98574.81;5116013;28;20191;-83
2022/01/10 01:02:54;;;;;;;13.17;7.37;;;;;;;1.55;100.00;98576.31;5110350;28;20198;-83
2022/01/10 01:05:23;;;;;;;14.73;8.47;;;;;;;1.55;100.00;98585.91;5108430;28;20210;-83
2022/01/10 01:07:51;;;;;;;17.83;9.20;;;;;;;1.58;100.00;98596.22;5106379;28;20198;-83
2022/01/10 01:13:21;;;;;;;16.70;8.87;;;;;;;1.38;100.00;98610.00;5114726;28;20193;-83
2022/01/10 01:16:09;;;;;;;12.40;7.70;;;;;;;1.47;100.00;98608.81;5114472;28;20236;-84
2022/01/10 01:24:11;;;;;;;14.00;7.37;;;;;;;1.23;100.00;98629.63;5115689;28;20194;-83
2022/01/10 01:26:41;;;;;;;12.63;6.87;;;;;;;1.28;100.00;98639.91;5110498;28;20191;-83
2022/01/10 01:29:16;;;;;;;11.90;7.13;;;;;;;1.25;100.00;98638.25;5107855;28;20287;-83
2022/01/10 01:31:46;;;;;;;10.53;7.03;;;;;;;1.22;100.00;98640.13;5110838;28;20668;-83
2022/01/10 01:34:16;;;;;;;10.87;6.73;;;;;;;1.13;100.00;98652.56;5107501;28;20198;-83
2022/01/10 01:36:48;;;;;;;13.77;6.93;;;;;;;1.14;100.00;98653.41;5109092;28;20215;-84
2022/01/10 01:39:20;;;;;;;12.00;6.67;;;;;;;1.13;100.00;98659.53;5111201;28;20209;-83
2022/01/10 01:41:51;;;;;;;11.27;6.90;;;;;;;1.15;100.00;98666.41;5109697;28;20201;-83
2022/01/10 01:44:21;;;;;;;10.03;6.33;;;;;;;1.16;100.00;98667.28;5111931;28;20195;-83
2022/01/10 01:46:50;;;;;;;13.67;7.03;;;;;;;1.15;100.00;98673.38;5112014;28;20654;-83
2022/01/10 01:49:19;;;;;;;12.23;6.53;;;;;;;1.14;100.00;98676.88;5111322;28;20191;-83
2022/01/10 01:51:47;;;;;;;8.30;6.07;;;;;;;1.22;100.00;98672.25;5104976;28;20192;-83
2022/01/10 01:54:20;;;;;;;13.70;6.90;;;;;;;1.21;100.00;98677.53;5111142;28;20198;-83
2022/01/10 01:56:50;;;;;;;11.70;7.30;;;;;;;1.35;100.00;98684.00;5108382;28;20203;-84
2022/01/10 01:59:18;;;;;;;20.60;10.03;;;;;;;1.38;100.00;98694.31;5065774;28;20192;-83
2022/01/10 02:01:48;;;;;;;17.97;9.70;;;;;;;1.42;100.00;98687.22;5064135;28;20184;-83
2022/01/10 02:04:19;;;;;;;19.50;9.73;;;;;;;1.45;100.00;98692.38;5065559;28;20196;-83
2022/01/10 02:06:47;;;;;;;35.17;13.73;;;;;;;1.48;100.00;98694.84;5065865;28;20204;-84
2022/01/10 02:09:15;;;;;;;24.97;11.07;;;;;;;1.59;100.00;98694.47;5062103;28;20208;-84
2022/01/10 02:11:44;;;;;;;29.97;13.00;;;;;;;1.48;100.00;98697.47;5064254;28;20192;-84
2022/01/10 02:14:12;;;;;;;21.17;10.60;;;;;;;1.44;100.00;98706.28;5009665;28;20206;-84
2022/01/10 02:16:43;;;;;;;16.43;9.53;;;;;;;1.52;100.00;98701.66;5009438;28;20666;-84
2022/01/10 02:19:14;;;;;;;15.13;8.40;;;;;;;1.56;100.00;98710.25;5006959;28;20194;-84
2022/01/10 02:21:45;;;;;;;13.90;8.27;;;;;;;1.49;100.00;98711.34;5009540;28;20194;-83
2022/01/10 02:24:13;;;;;;;15.20;8.60;;;;;;;1.56;100.00;98710.25;5008900;28;20195;-83
2022/01/10 02:26:42;;;;;;;15.80;8.97;;;;;;;1.69;100.00;98716.72;5005561;28;20206;-84
2022/01/10 02:29:10;;;;;;;15.50;9.90;;;;;;;1.66;100.00;98709.03;5006776;28;20288;-83
2022/01/10 02:31:40;;;;;;;15.83;9.20;;;;;;;1.62;100.00;98712.63;5009841;28;20198;-83
2022/01/10 02:34:09;;;;;;;16.20;9.57;;;;;;;1.56;100.00;98716.31;4962179;28;20221;-83
2022/01/10 02:36:39;;;;;;;22.67;10.27;;;;;;;1.52;100.00;98719.91;5004690;28;20203;-84
2022/01/10 02:39:11;;;;;;;17.17;10.20;;;;;;;1.67;100.00;98721.16;5031643;28;20270;-84
2022/01/10 02:41:42;;;;;;;16.90;9.97;;;;;;;1.75;100.00;98734.81;5087288;28;20739;-83
2022/01/10 02:44:13;;;;;;;14.67;9.90;;;;;;;1.75;100.00;98736.56;5079778;28;20198;-83
2022/01/10 02:46:42;;;;;;;14.33;9.47;;;;;;;1.63;100.00;98741.28;5118925;28;20194;-84
2022/01/10 02:49:12;;;;;;;13.97;8.47;;;;;;;1.52;100.00;98748.63;5109532;28;20195;-83
2022/01/10 02:51:42;;;;;;;16.13;9.17;;;;;;;1.49;100.00;98758.34;5107738;28;20191;-83
2022/01/10 02:54:14;;;;;;;19.07;9.73;;;;;;;1.41;100.00;98758.59;5106298;28;20195;-84
2022/01/10 02:56:48;;;;;;;23.90;9.60;;;;;;;1.34;100.00;98757.06;5109530;28;20194;-84
2022/01/10 02:59:16;;;;;;;16.23;8.43;;;;;;;1.33;100.00;98765.81;5111087;28;20219;-84
2022/01/10 03:01:45;;;;;;;16.23;8.10;;;;;;;1.35;100.00;98767.47;5111263;28;20207;-84
2022/01/10 03:04:15;;;;;;;17.50;9.43;;;;;;;1.23;100.00;98765.25;5110975;28;20198;-84
2022/01/10 03:06:44;;;;;;;15.50;8.83;;;;;;;1.36;100.00;98773.56;5103803;28;20202;-84
2022/01/10 03:09:19;;;;;;;14.60;9.10;;;;;;;1.35;100.00;98782.25;5109423;28;20248;-83
2022/01/10 03:11:48;;;;;;;16.57;9.07;;;;;;;1.35;100.00;98783.13;5099932;28;20202;-84
2022/01/10 03:14:17;;;;;;;15.07;8.47;;;;;;;1.32;100.00;98787.56;5105825;28;20223;-83
2022/01/10 03:16:46;;;;;;;18.40;9.87;;;;;;;1.09;100.00;98789.19;5103394;28;20187;-84
2022/01/10 03:19:14;;;;;;;16.63;9.17;;;;;;;1.12;100.00;98799.50;5106189;28;20226;-83
2022/01/10 03:21:43;;;;;;;22.27;9.40;;;;;;;1.18;100.00;98793.25;5111251;28;20187;-83
2022/01/10 03:24:11;;;;;;;17.97;8.73;;;;;;;1.22;100.00;98794.00;5107054;28;20202;-83
2022/01/10 03:26:40;;;;;;;13.83;8.73;;;;;;;1.24;100.00;98795.66;5108922;28;20213;-83
2022/01/10 03:29:10;;;;;;;16.57;9.40;;;;;;;1.46;100.00;98808.88;5110542;28;20223;-83
2022/01/10 03:31:40;;;;;;;14.50;8.73;;;;;;;1.42;100.00;98804.63;5111479;28;20203;-84
2022/01/10 03:34:11;;;;;;;16.23;9.43;;;;;;;1.37;100.00;98811.78;5122009;28;20237;-83
2022/01/10 03:36:41;;;;;;;17.53;9.73;;;;;;;1.44;100.00;98814.09;5117471;28;20198;-83
2022/01/10 03:39:10;;;;;;;14.40;9.30;;;;;;;1.57;100.00;98816.34;5114294;28;20294;-83
2022/01/10 03:41:41;;;;;;;15.63;9.17;;;;;;;1.51;100.00;98819.13;5110524;28;20197;-83
2022/01/10 03:44:11;;;;;;;17.50;10.13;;;;;;;1.57;100.00;98825.03;5113661;28;20244;-83
2022/01/10 03:46:39;;;;;;;17.07;9.17;;;;;;;1.55;100.00;98820.75;5110287;28;20203;-84
2022/01/10 03:49:08;;;;;;;18.10;9.17;;;;;;;1.51;100.00;98827.81;5115488;28;20194;-81
2022/01/10 03:51:37;;;;;;;17.97;9.90;;;;;;;1.54;100.00;98829.47;5135175;28;20267;-81
2022/01/10 03:54:07;;;;;;;16.23;9.23;;;;;;;1.52;100.00;98834.75;5127935;28;20248;-82
2022/01/10 03:56:36;;;;;;;14.80;9.70;;;;;;;1.54;100.00;98840.75;5128754;28;20266;-81
2022/01/10 03:59:08;;;;;;;17.00;10.53;;;;;;;1.56;100.00;98840.72;5134286;28;20211;-81
2022/01/10 04:01:39;;;;;;;16.50;9.43;;;;;;;1.55;100.00;98834.66;5126432;28;20203;-84
2022/01/10 04:04:08;;;;;;;18.43;9.23;;;;;;;1.47;100.00;98836.66;5112634;28;20191;-84
2022/01/10 04:06:38;;;;;;;15.93;9.10;;;;;;;1.49;100.00;98853.13;5114868;28;20202;-84
2022/01/10 04:09:06;;;;;;;15.83;9.30;;;;;;;1.47;100.00;98852.31;5110947;28;20282;-84
2022/01/10 04:11:36;;;;;;;14.13;9.37;;;;;;;1.46;100.00;98858.44;5109150;28;20187;-84
2022/01/10 04:14:05;;;;;;;15.13;9.67;;;;;;;1.52;100.00;98862.59;5107842;28;20195;-84
2022/01/10 04:16:35;;;;;;;12.10;8.73;;;;;;;1.57;100.00;98868.53;5107258;28;20198;-84
2022/01/10 04:19:05;;;;;;;15.97;9.50;;;;;;;1.57;100.00;98865.94;5116899;28;20234;-83
2022/01/10 04:21:34;;;;;;;17.23;10.53;;;;;;;1.57;100.00;98874.59;5111053;28;20191;-84
2022/01/10 04:24:04;;;;;;;15.53;9.50;;;;;;;1.56;100.00;98877.28;5105937;28;20646;-83
2022/01/10 04:26:33;;;;;;;16.77;9.70;;;;;;;1.57;100.00;98877.22;5113874;28;20199;-83
2022/01/10 04:29:01;;;;;;;17.93;9.40;;;;;;;1.54;100.00;98890.34;5109607;28;20191;-83
2022/01/10 04:31:30;;;;;;;15.03;9.63;;;;;;;1.56;100.00;98898.16;5109947;28;20211;-83
2022/01/10 04:34:00;;;;;;;14.67;9.53;;;;;;;1.56;100.00;98900.75;5101387;28;20203;-83
2022/01/10 04:36:28;;;;;;;17.50;9.73;;;;;;;1.52;100.00;98901.75;5104871;28;20199;-83
2022/01/10 04:38:57;;;;;;;14.83;9.17;;;;;;;1.39;100.00;98907.34;5110168;28;20210;-84
2022/01/10 04:41:25;;;;;;;19.07;9.73;;;;;;;1.50;100.00;98914.00;5111495;28;20187;-84
2022/01/10 04:43:53;;;;;;;17.37;9.93;;;;;;;1.47;100.00;98914.94;5109790;28;20207;-83
2022/01/10 04:46:21;;;;;;;13.67;9.10;;;;;;;1.53;100.00;98914.75;5108901;28;20194;-83
2022/01/10 04:48:50;;;;;;;17.00;9.97;;;;;;;1.57;100.00;98913.75;5109887;28;20195;-83
2022/01/10 04:51:20;;;;;;;15.90;9.07;;;;;;;1.59;100.00;98916.31;5105028;28;20207;-83
2022/01/10 04:53:51;;;;;;;13.30;9.33;;;;;;;1.56;100.00;98926.84;5109652;28;20199;-84
2022/01/10 04:56:23;;;;;;;18.17;9.60;;;;;;;1.57;100.00;98929.41;5107219;28;20206;-84
2022/01/10 04:58:54;;;;;;;15.47;9.60;;;;;;;1.71;100.00;98934.19;5108199;28;20241;-84
2022/01/10 05:01:22;;;;;;;15.40;9.03;;;;;;;1.81;100.00;98940.81;5075182;28;20203;-83
2022/01/10 05:03:50;;;;;;;18.83;8.87;;;;;;;1.76;100.00;98942.75;5113340;28;20199;-84
2022/01/10 05:06:20;;;;;;;15.60;8.23;;;;;;;1.77;100.00;98947.06;5111323;28;20645;-84
2022/01/10 05:08:48;;;;;;;13.40;8.17;;;;;;;1.69;100.00;98957.72;5101801;28;20238;-83
2022/01/10 05:11:18;;;;;;;18.53;9.37;;;;;;;1.69;100.00;98956.88;5107903;28;20195;-84
2022/01/10 05:13:47;;;;;;;15.07;8.77;;;;;;;1.58;100.00;98965.03;5111551;28;20198;-85
2022/01/10 05:16:18;;;;;;;17.27;8.57;;;;;;;1.55;100.00;98964.31;5109338;28;20187;-85
2022/01/10 05:18:47;;;;;;;19.73;9.17;;;;;;;1.62;100.00;98976.25;5109077;28;20219;-85
2022/01/10 05:21:17;;;;;;;24.20;9.40;;;;;;;1.56;100.00;98974.69;5106082;28;20203;-84
2022/01/10 05:23:47;;;;;;;14.20;8.47;;;;;;;1.65;100.00;98974.41;5105759;28;20199;-85
2022/01/10 05:26:15;;;;;;;15.00;8.90;;;;;;;1.57;100.00;98978.16;5108128;28;20633;-84
2022/01/10 05:28:44;;;;;;;21.17;9.63;;;;;;;1.57;100.00;98980.75;5112799;28;20187;-84
2022/01/10 05:31:12;;;;;;;14.00;8.53;;;;;;;1.71;100.00;98989.00;5105006;28;20323;-84
2022/01/10 05:33:40;;;;;;;16.03;9.50;;;;;;;1.69;100.00;98996.88;5108399;28;20218;-84
2022/01/10 05:36:08;;;;;;;19.17;9.47;;;;;;;1.66;100.00;99002.22;5107843;28;20194;-84
2022/01/10 05:38:36;;;;;;;19.67;10.07;;;;;;;1.66;100.00;99015.25;5103437;28;20193;-84
2022/01/10 05:41:06;;;;;;;18.13;9.20;;;;;;;1.65;100.00;99016.16;5115569;28;20183;-84
2022/01/10 05:43:35;;;;;;;19.97;9.90;;;;;;;1.61;100.00;99024.97;5109464;28;20198;-84
2022/01/10 05:46:07;;;;;;;16.07;9.77;;;;;;;1.65;100.00;99029.22;5110236;28;20203;-84
2022/01/10 05:48:39;;;;;;;20.33;10.33;;;;;;;1.65;100.00;99030.97;5112383;28;20191;-85
2022/01/10 05:51:08;;;;;;;19.37;9.90;;;;;;;1.70;100.00;99034.28;5106936;28;20320;-85
2022/01/10 05:53:37;;;;;;;16.00;9.67;;;;;;;1.67;100.00;99042.22;5109881;28;20199;-85
2022/01/10 05:56:07;;;;;;;17.00;9.87;;;;;;;1.69;100.00;99046.50;5107487;28;20187;-84
2022/01/10 05:58:36;;;;;;;20.10;10.20;;;;;;;1.76;100.00;99060.22;5110374;28;20649;-85
2022/01/10 06:01:05;;;;;;;18.60;10.03;;;;;;;1.76;100.00;99057.63;5114616;28;20215;-85
2022/01/10 06:03:33;;;;;;;19.23;10.33;;;;;;;1.78;100.00;99062.78;5106596;28;20646;-84
2022/01/10 06:06:01;;;;;;;18.13;9.43;;;;;;;1.76;100.00;99061.97;5111678;28;20219;-84
2022/01/10 06:08:30;;;;;;;17.47;10.00;;;;;;;1.88;100.00;99074.66;5105206;28;20191;-84
2022/01/10 06:10:58;;;;;;;14.80;9.50;;;;;;;1.87;100.00;99078.19;5111744;28;20201;-85
2022/01/10 06:13:28;;;;;;;17.63;10.33;;;;;;;1.86;100.00;99082.53;5111423;28;20200;-83
2022/01/10 06:15:56;;;;;;;15.47;9.57;;;;;;;1.87;100.00;99083.41;5111512;28;20198;-85
2022/01/10 06:18:24;;;;;;;16.33;9.30;;;;;;;1.86;100.00;99085.16;5109152;28;20195;-84
2022/01/10 06:20:52;;;;;;;17.10;9.80;;;;;;;1.88;100.00;99099.00;5113506;28;20215;-84
2022/01/10 06:23:20;;;;;;;17.10;9.37;;;;;;;1.91;100.00;99101.53;5109670;28;20201;-84
2022/01/10 06:25:49;;;;;;;18.27;9.90;;;;;;;1.83;100.00;99108.72;5106737;28;20235;-84
2022/01/10 06:28:18;;;;;;;15.50;9.77;;;;;;;1.88;100.00;99113.81;5110263;28;20259;-84
2022/01/10 06:30:48;;;;;;;16.63;9.27;;;;;;;1.88;100.00;99113.81;5117735;28;20758;-84
2022/01/10 06:33:17;;;;;;;15.70;9.10;;;;;;;1.85;100.00;99122.63;5111238;28;20203;-85
2022/01/10 06:35:46;;;;;;;16.77;9.90;;;;;;;1.87;100.00;99127.78;5105761;28;20198;-84
2022/01/10 06:38:14;;;;;;;20.43;9.47;;;;;;;1.82;100.00;99129.66;5112923;28;20195;-84
2022/01/10 06:40:45;;;;;;;18.57;9.67;;;;;;;1.78;100.00;99133.28;5111508;28;20219;-84
2022/01/10 06:43:13;;;;;;;16.37;9.60;;;;;;;1.80;100.00;99148.00;5110871;28;20195;-83
2022/01/10 06:45:42;;;;;;;15.87;9.73;;;;;;;1.78;100.00;99147.19;5114823;28;20199;-84
2022/01/10 06:48:13;;;;;;;18.27;9.53;;;;;;;1.84;100.00;99146.16;5057916;28;20270;-86
2022/01/10 06:50:46;;;;;;;19.03;9.93;;;;;;;2.00;100.00;99152.63;5105756;28;20247;-84
2022/01/10 06:53:15;;;;;;;15.63;9.67;;;;;;;1.95;100.00;99158.00;5110542;28;20199;-84
2022/01/10 06:55:45;;;;;;;20.07;10.90;;;;;;;1.68;100.00;99151.81;5111181;28;20183;-84
2022/01/10 06:58:14;;;;;;;29.10;13.33;;;;;;;1.33;100.00;99157.97;5101308;28;20203;-84
2022/01/10 07:00:43;;;;;;;22.43;10.50;;;;;;;1.36;100.00;99151.84;5110277;28;20211;-84
2022/01/10 07:03:13;;;;;;;20.87;10.23;;;;;;;1.59;100.00;99170.34;5110552;28;20653;-84
2022/01/10 07:05:41;;;;;;;18.30;10.07;;;;;;;1.59;100.00;99183.38;5109474;28;20219;-84
2022/01/10 07:08:10;;;;;;;20.87;10.17;;;;;;;1.48;100.00;99193.25;5109518;28;20202;-84
2022/01/10 07:10:38;;;;;;;19.40;10.50;;;;;;;1.53;100.00;99193.13;5105205;28;20271;-84
2022/01/10 07:13:07;;;;;;;33.27;20.07;;;;;;;1.59;100.00;99209.50;5110689;28;20277;-85
2022/01/10 07:15:36;;;;;;;21.37;13.03;;;;;;;1.68;100.00;99204.03;5108391;28;20190;-85
2022/01/10 07:18:05;;;;;;;21.40;13.13;;;;;;;1.69;100.00;99216.16;5113244;28;20202;-85
2022/01/10 07:20:34;;;;;;;18.47;10.40;;;;;;;1.74;100.00;99223.91;5106915;28;20218;-86
2022/01/10 07:23:03;;;;;;;19.13;10.63;;;;;;;1.66;100.00;99234.53;5105000;28;20202;-85
2022/01/10 07:25:32;;;;;;;21.27;11.13;;;;;;;1.55;100.00;99233.97;5107055;28;20189;-86
2022/01/10 07:28:00;;;;;;;19.30;10.60;;;;;;;1.41;100.00;99233.47;5106539;28;20195;-86
2022/01/10 07:30:28;;;;;;;18.80;10.20;;;;;;;1.58;100.00;99239.09;5107913;28;20219;-86
2022/01/10 07:32:58;;;;;;;16.57;9.83;;;;;;;1.68;100.00;99245.78;5106563;28;20199;-86
2022/01/10 07:35:26;;;;;;;19.00;10.80;;;;;;;1.81;100.00;99254.13;5110084;28;20195;-85
2022/01/10 07:37:56;;;;;;;20.50;10.23;;;;;;;1.72;100.00;99251.78;5105774;28;20199;-86
2022/01/10 07:40:24;;;;;;;22.47;9.83;;;;;;;1.81;100.00;99255.91;5117712;28;20211;-85
2022/01/10 07:42:52;;;;;;;17.07;10.33;;;;;;;1.83;100.00;99254.09;5107558;28;20221;-85
2022/01/10 07:45:21;;;;;;;19.83;10.23;;;;;;;1.85;100.00;99265.38;5113668;28;20197;-82
2022/01/10 07:47:50;;;;;;;22.70;10.60;;;;;;;1.84;100.00;99266.28;5113435;28;20206;-83
2022/01/10 07:50:18;;;;;;;22.00;9.97;;;;;;;1.84;100.00;99266.28;5107805;28;20202;-86
2022/01/10 07:52:46;;;;;;;17.90;10.43;;;;;;;1.87;100.00;99272.25;5108399;28;20198;-85
2022/01/10 07:55:16;;;;;;;19.43;10.23;;;;;;;2.00;100.00;99278.00;5114466;28;20210;-85
2022/01/10 07:57:45;;;;;;;19.03;9.83;;;;;;;2.05;100.00;99283.13;5114188;28;20264;-85
2022/01/10 08:00:15;;;;;;;23.00;10.47;;;;;;;1.97;100.00;99292.00;5114297;28;20345;-85
2022/01/10 08:02:43;;;;;;;21.33;10.63;;;;;;;1.90;100.00;99294.81;5112430;28;20187;-85
2022/01/10 08:05:12;;;;;;;24.33;14.23;;;;;;;2.00;100.00;99298.91;5108681;28;20199;-85
2022/01/10 08:07:40;;;;;;;20.97;13.83;;;;;;;2.09;100.00;99300.41;5110610;28;20210;-86
2022/01/10 08:10:10;;;;;;;24.73;14.97;;;;;;;2.09;100.00;99309.09;5109288;28;20248;-85
2022/01/10 08:12:40;;;;;;;21.30;13.67;;;;;;;2.26;100.00;99309.50;5112914;28;20198;-85
2022/01/10 08:15:10;;;;;;;21.20;11.33;;;;;;;2.26;100.00;99316.47;5114183;28;20240;-85
2022/01/10 08:17:39;;;;;;;17.20;10.20;;;;;;;2.12;100.00;99321.22;5108387;28;20191;-86
2022/01/10 08:20:08;;;;;;;21.27;10.87;;;;;;;2.17;100.00;99327.19;5117097;28;20210;-86
2022/01/10 08:22:36;;;;;;;19.87;10.17;;;;;;;2.17;100.00;99337.63;5029367;28;20901;-85
2022/01/10 08:25:08;;;;;;;22.07;11.43;;;;;;;2.17;100.00;99337.63;5028519;28;20194;-85
2022/01/10 08:27:40;;;;;;;22.10;11.07;;;;;;;2.24;100.00;99336.56;5031004;28;20217;-86
2022/01/10 08:30:11;;;;;;;21.97;10.83;;;;;;;2.27;100.00;99345.19;5028616;28;20226;-85
2022/01/10 08:32:40;;;;;;;20.93;10.40;;;;;;;2.26;100.00;99353.91;5014955;28;20194;-86
2022/01/10 08:35:10;;;;;;;18.33;10.83;;;;;;;2.27;100.00;99353.00;5009766;28;20202;-85
2022/01/10 08:37:39;;;;;;;20.53;11.10;;;;;;;2.18;100.00;99357.63;5014462;28;20190;-86
2022/01/10 08:40:08;;;;;;;23.47;11.73;;;;;;;2.37;100.00;99373.66;5009936;28;20201;-85
2022/01/10 08:42:37;;;;;;;19.43;11.13;;;;;;;2.37;100.00;99373.66;5013748;28;20219;-85
2022/01/10 08:45:11;;;;;;;16.40;10.87;;;;;;;2.42;100.00;99372.66;5009689;28;20293;-86
2022/01/10 08:47:39;;;;;;;23.07;14.60;;;;;;;2.42;100.00;99372.66;5047975;28;20193;-85
2022/01/10 08:50:11;;;;;;;27.40;13.00;;;;;;;2.56;100.00;99383.56;5084597;28;20260;-86
2022/01/10 08:52:41;;;;;;;22.73;11.70;;;;;;;2.66;100.00;99386.78;5118007;28;20195;-85
2022/01/10 08:55:11;;;;;;;27.77;13.63;;;;;;;2.73;100.00;99385.72;5113530;28;20259;-86
2022/01/10 08:57:39;;;;;;;28.00;13.90;;;;;;;2.75;100.00;99396.13;5113715;28;20199;-86
2022/01/10 09:00:13;;;;;;;21.03;12.30;;;;;;;2.85;100.00;99394.97;5112663;28;20207;-87
2022/01/10 09:02:51;;;;;;;28.67;11.37;;;;;;;2.87;100.00;99396.63;5073894;28;20220;-86
2022/01/10 09:05:19;;;;;;;18.73;11.60;;;;;;;2.88;100.00;99400.09;5064537;28;20204;-86
2022/01/10 09:07:48;;;;;;;18.93;10.33;;;;;;;2.82;100.00;99419.47;5072072;28;20203;-86
2022/01/10 09:10:17;;;;;;;16.50;9.23;;;;;;;2.83;100.00;99418.56;5072820;28;20225;-85
2022/01/10 09:12:46;;;;;;;18.97;10.57;;;;;;;2.83;100.00;99418.56;5053895;28;20203;-85
2022/01/10 09:15:17;;;;;;;21.50;10.60;;;;;;;2.69;100.00;99423.31;5075518;28;20204;-85
2022/01/10 09:17:46;;;;;;;23.57;11.30;;;;;;;2.72;100.00;99425.84;5090076;28;20232;-82
2022/01/10 09:20:15;;;;;;;19.70;11.03;;;;;;;2.62;100.00;99426.16;5094914;28;20717;-82
2022/01/10 09:22:43;;;;;;;23.33;12.40;;;;;;;2.67;100.00;99432.09;5093767;28;20212;-83
2022/01/10 09:25:12;;;;;;;26.47;10.30;;;;;;;2.75;100.00;99440.59;5077352;28;20648;-86
2022/01/10 09:27:42;;;;;;;23.40;11.07;;;;;;;2.95;100.00;99442.66;5093903;28;20189;-86
2022/01/10 09:30:12;;;;;;;21.37;10.70;;;;;;;2.96;100.00;99442.59;5111080;28;20826;-84
2022/01/10 09:32:42;;;;;;;19.37;9.77;;;;;;;2.95;100.00;99447.88;5064858;28;20271;-86
2022/01/10 09:35:10;;;;;;;17.30;10.30;;;;;;;2.88;100.00;99445.44;5110105;28;20202;-85
2022/01/10 09:37:40;;;;;;;24.43;10.20;;;;;;;3.01;100.00;99455.56;5117950;28;20183;-85
2022/01/10 09:40:09;;;;;;;20.27;10.40;;;;;;;3.17;100.00;99452.44;5111679;28;20661;-85
2022/01/10 09:42:38;;;;;;;21.97;10.93;;;;;;;3.08;100.00;99460.56;5115042;28;20222;-85
2022/01/10 09:45:08;;;;;;;20.80;9.90;;;;;;;3.10;100.00;99464.00;5113039;28;20191;-85
2022/01/10 09:47:37;;;;;;;19.80;10.17;;;;;;;3.20;100.00;99469.84;5109423;28;20206;-84
2022/01/10 09:50:10;;;;;;;20.53;9.87;;;;;;;3.20;100.00;99469.84;5111606;28;20211;-85
2022/01/10 09:52:41;;;;;;;26.23;10.40;;;;;;;3.41;100.00;99474.44;5026573;28;20197;-85
2022/01/10 09:55:10;;;;;;;22.13;10.70;;;;;;;3.43;100.00;99477.00;5024399;28;20206;-85
2022/01/10 09:57:39;;;;;;;18.40;9.73;;;;;;;3.67;100.00;99484.13;5027796;28;20218;-85
2022/01/10 10:00:10;;;;;;;20.93;10.23;;;;;;;3.81;100.00;99488.06;5030460;28;20186;-85
2022/01/10 10:02:40;;;;;;;18.77;10.07;;;;;;;3.89;100.00;99491.31;5033389;28;20222;-85
2022/01/10 10:05:13;;;;;;;20.57;10.20;;;;;;;3.88;100.00;99489.59;5030450;28;20193;-85
2022/01/10 10:07:42;;;;;;;22.63;10.53;;;;;;;3.88;100.00;99500.09;5025701;28;20213;-85
2022/01/10 10:10:13;;;;;;;19.53;10.77;;;;;;;3.86;100.00;99502.75;5045863;28;20202;-85
2022/01/10 10:12:44;;;;;;;16.07;9.80;;;;;;;3.90;100.00;99506.97;5059380;28;20249;-84
2022/01/10 10:15:15;;;;;;;18.47;10.17;;;;;;;3.99;100.00;99508.47;5115436;28;20188;-85
2022/01/10 10:17:44;;;;;;;17.47;9.60;;;;;;;4.14;100.00;99504.47;5111435;28;20210;-85
2022/01/10 10:20:18;;;;;;;19.60;11.30;;;;;;;4.25;100.00;99505.88;5107554;28;20203;-85
2022/01/10 10:23:07;;;;;;;19.17;9.93;;;;;;;4.36;100.00;99504.66;5013988;28;20249;-85
2022/01/10 10:25:35;;;;;;;21.37;11.20;;;;;;;4.42;100.00;99502.66;5011681;28;20197;-84
2022/01/10 10:28:04;;;;;;;24.03;10.37;;;;;;;4.42;100.00;99505.28;5008440;28;20206;-85
2022/01/10 10:30:32;;;;;;;19.83;10.50;;;;;;;4.48;100.00;99518.19;5013589;28;20245;-85
2022/01/10 10:33:15;;;;;;;21.93;10.67;;;;;;;4.64;100.00;99522.94;5012438;28;20202;-85
2022/01/10 10:35:58;;;;;;;20.17;11.20;;;;;;;4.19;100.00;99515.69;5007458;28;20206;-84
2022/01/10 10:38:27;;;;;;;19.07;9.93;;;;;;;4.49;100.00;99519.91;5010494;28;20693;-85
2022/01/10 10:41:00;;;;;;;19.70;11.00;;;;;;;4.81;100.00;99521.44;5006314;28;20217;-84
2022/01/10 10:43:31;;;;;;;21.83;10.73;;;;;;;4.81;100.00;99528.44;5009947;28;20333;-83
2022/01/10 10:46:01;;;;;;;19.93;9.47;;;;;;;4.83;100.00;99524.03;5003666;28;20209;-83
2022/01/10 10:48:34;;;;;;;22.93;11.17;;;;;;;4.70;100.00;99530.59;5101721;28;20191;-84
2022/01/10 10:51:04;;;;;;;20.23;10.57;;;;;;;4.88;100.00;99545.69;5116680;28;20195;-84
2022/01/10 10:53:35;;;;;;;16.77;10.37;;;;;;;4.78;100.00;99539.91;5109984;28;20199;-82
2022/01/10 10:56:06;;;;;;;17.23;9.73;;;;;;;5.10;100.00;99543.16;5058766;28;20202;-83
2022/01/10 10:58:39;;;;;;;25.20;15.13;;;;;;;4.77;100.00;99545.22;5109033;28;20205;-82
2022/01/10 11:01:08;;;;;;;16.40;9.83;;;;;;;5.18;100.00;99533.25;5109475;28;20232;-82
2022/01/10 11:03:37;;;;;;;14.93;10.07;;;;;;;5.31;100.00;99544.19;5107446;28;20221;-82
2022/01/10 11:06:08;;;;;;;18.77;9.73;;;;;;;5.33;100.00;99543.22;5109038;28;20203;-82
2022/01/10 11:08:38;;;;;;;17.77;9.97;;;;;;;5.49;100.00;99545.25;5106530;28;20199;-82
2022/01/10 11:11:07;;;;;;;20.67;9.50;;;;;;;5.70;100.00;99547.97;5121637;28;20226;-81
2022/01/10 11:13:38;;;;;;;15.23;8.93;;;;;;;5.70;100.00;99547.97;5118050;28;20228;-82
2022/01/10 11:16:09;;;;;;;18.93;8.97;;;;;;;5.21;100.00;99548.94;5111672;28;20195;-82
2022/01/10 11:18:39;;;;;;;20.60;9.97;;;;;;;5.97;100.00;99556.56;5111810;28;20197;-82
2022/01/10 11:21:11;;;;;;;18.10;9.07;;;;;;;6.46;100.00;99548.50;5115833;28;20193;-82
2022/01/10 11:23:41;;;;;;;19.03;9.30;;;;;;;7.00;100.00;99550.59;5115539;28;20263;-84
2022/01/10 11:26:12;;;;;;;16.03;8.27;;;;;;;7.20;100.00;99548.88;5121036;28;20213;-82
2022/01/10 11:28:48;;;;;;;19.43;9.50;;;;;;;7.53;100.00;99547.41;5117155;28;20244;-82
2022/01/10 11:31:23;;;;;;;16.70;8.37;;;;;;;7.61;100.00;99545.25;5118062;28;20205;-82
2022/01/10 11:33:53;;;;;;;13.50;7.47;;;;;;;7.77;100.00;99544.53;5121479;28;20222;-82
2022/01/10 11:36:25;;;;;;;16.73;8.13;;;;;;;7.70;100.00;99546.59;5112030;28;20198;-82
2022/01/10 11:38:55;;;;;;;17.03;8.30;;;;;;;7.76;100.00;99562.16;5120498;28;20702;-82
2022/01/10 11:41:26;;;;;;;16.73;7.97;;;;;;;7.69;100.00;99564.19;5112242;28;20195;-82